METAR Data
IDs: Format: Raw Decoded Include TAF

Data at: 0248 UTC 25 Jan 2020

PAVC 250156Z AUTO 00000KT 10SM CLR M08/M14 A2973 RMK AO2 SLP070 T10831139 FZRANO
PAVC 250056Z AUTO 15004KT 10SM CLR M05/M12 A2974 RMK AO2 SLP073 T10501117 FZRANO
PAVC 242356Z AUTO 00000KT 10SM CLR M02/M10 A2974 RMK AO2 SLP074 T10221100 11022 21133 58009 FZRANO
PAVC 242256Z AUTO 34007KT 10SM CLR M05/M12 A2975 RMK AO2 SLP079 T10501122 FZRANO
PAVC 242156Z AUTO 00000KT 10SM CLR M06/M12 A2977 RMK AO2 SLP082 T10611122 FZRANO
PAVC 242056Z AUTO 00000KT 10SM CLR M11/M14 A2977 RMK AO2 SLP084 T11061139 50002 FZRANO
PAVC 241956Z AUTO 00000KT 10SM CLR M13/M17 A2977 RMK AO2 SLP085 T11281167 FZRANO
PAVC 241856Z AUTO 00000KT 10SM CLR M13/M16 A2977 RMK AO2 SLP082 T11331161 FZRANO
PAVC 241756Z AUTO 00000KT 10SM CLR M13/M17 A2976 RMK AO2 SLP082 T11281167 11111 21133 56011 FZRANO
PAVC 241656Z AUTO 00000KT 10SM CLR M13/M16 A2977 RMK AO2 SLP084 T11281161 FZRANO
PAVC 241556Z AUTO 00000KT 10SM CLR M12/M16 A2978 RMK AO2 SLP088 T11171156 FZRANO
PAVC 241456Z AUTO 00000KT 10SM CLR M13/M17 A2980 RMK AO2 SLP093 T11281167 58016 FZRANO
PAVC 241356Z AUTO 34003KT 10SM CLR M13/M17 A2982 RMK AO2 SLP100 T11281167 FZRANO
PAVC 241256Z AUTO 00000KT 10SM CLR M12/M15 A2983 RMK AO2 SLP105 T11171150 FZRANO
PAVC 241156Z AUTO 00000KT 10SM CLR M13/M16 A2984 RMK AO2 SLP108 T11281161 11111 21139 58012 FZRANO
PAVC 241056Z AUTO 00000KT 10SM CLR M13/M16 A2986 RMK AO2 SLP114 T11331161 FZRANO
PAVC 240956Z AUTO 00000KT 10SM CLR M13/M15 A2987 RMK AO2 SLP117 T11281150 FZRANO
PAVC 240856Z AUTO 25003KT 10SM CLR M13/M15 A2988 RMK AO2 SLP120 T11281150 410171133 58004 FZRANO
PAVC 240756Z AUTO 00000KT 10SM CLR M12/M15 A2989 RMK AO2 SLP124 T11221150 FZRANO
PAVC 240656Z AUTO 00000KT 10SM CLR M12/M14 A2990 RMK AO2 SLP127 T11221144 FZRANO
PAVC 240556Z AUTO 02003KT 10SM CLR M12/M14 A2989 RMK AO2 SLP124 T11171144 11022 21117 54000 FZRANO
PAVC 240456Z AUTO 06003KT 10SM CLR M11/M13 A2989 RMK AO2 SLP125 T11061133 FZRANO
PAVC 240356Z AUTO 10003KT 10SM CLR M11/M14 A2989 RMK AO2 SLP125 T11061139 FZRANO
PAVC 240256Z AUTO 00000KT 10SM CLR M08/M13 A2989 RMK AO2 SLP124 T10831128 58004 FZRANO
PAVC 240156Z AUTO 09006KT 10SM CLR M05/M11 A2990 RMK AO2 SLP126 T10501111 FZRANO
PAVC 240056Z AUTO 10006KT 10SM CLR M03/M11 A2990 RMK AO2 SLP126 T10331111 FZRANO
PAVC 232356Z AUTO 09005KT 10SM SCT033 M02/M11 A2990 RMK AO2 SLP128 T10221111 11022 21078 58010 FZRANO
PAVC 232307Z AUTO 06004KT 10SM OVC031 M04/M12 A2991 RMK AO2 FZRANO
PAVC 232256Z AUTO 03004KT 10SM OVC029 M04/M12 A2992 RMK AO2 SLP133 T10441117 FZRANO
PAVC 232240Z AUTO 05007KT 10SM BKN029 M04/M12 A2992 RMK AO2 FZRANO
PAVC 232156Z AUTO 01003KT 10SM CLR M05/M12 A2994 RMK AO2 SLP139 T10501117 FZRANO
PAVC 232056Z AUTO 07005KT 10SM FEW037 M07/M12 A2993 RMK AO2 SLP139 T10721117 51008 FZRANO
PAVC 231956Z AUTO 00000KT 10SM CLR M08/M12 A2993 RMK AO2 SLP137 T10781117 FZRANO
PAVC 231856Z AUTO 11003KT 10SM CLR M06/M10 A2993 RMK AO2 SLP138 T10611100 FZRANO
PAVC 231756Z AUTO 13006KT 10SM FEW034 M04/M08 A2991 RMK AO2 SLP130 60000 T10391083 11017 21039 56010 FZRANO
PAVC 231656Z AUTO 31008KT 10SM CLR M03/M08 A2991 RMK AO2 SLP131 T10281083 FZRANO
PAVC 231556Z AUTO 30011G21KT 10SM FEW028 SCT035 M02/M07 A2991 RMK AO2 SNE1459 SLP132 P0000 T10171067 FZRANO
PAVC 231456Z AUTO 27004KT 9SM -SN FEW016 SCT032 BKN041 M03/M06 A2994 RMK AO2 SNB07 SLP140 P0000 60000 T10331061 58009 FZRANO
PAVC 231449Z AUTO VRB03KT 9SM -SN FEW017 BKN026 BKN033 M03/M06 A2994 RMK AO2 SNB07 P0000 FZRANO